sensor_id;sensor_type;location;lat;lon;timestamp;P1;durP1;ratioP1;P2;durP2;ratioP2
61330;SDS011;71993;52.478;-1.918;2023-08-31T00:00:08;2.80;;;1.10;;
61330;SDS011;71993;52.478;-1.918;2023-08-31T00:02:40;3.15;;;1.20;;
61330;SDS011;71993;52.478;-1.918;2023-08-31T00:05:11;2.47;;;1.25;;
61330;SDS011;71993;52.478;-1.918;2023-08-31T00:07:41;2.55;;;1.13;;
61330;SDS011;71993;52.478;-1.918;2023-08-31T00:10:11;2.88;;;1.20;;
61330;SDS011;71993;52.478;-1.918;2023-08-31T00:12:47;3.60;;;1.20;;
61330;SDS011;71993;52.478;-1.918;2023-08-31T00:15:17;2.10;;;0.90;;
61330;SDS011;71993;52.478;-1.918;2023-08-31T00:17:48;2.92;;;1.00;;
61330;SDS011;71993;52.478;-1.918;2023-08-31T00:20:18;2.78;;;0.98;;
61330;SDS011;71993;52.478;-1.918;2023-08-31T00:22:49;1.60;;;0.80;;
61330;SDS011;71993;52.478;-1.918;2023-08-31T00:25:20;1.35;;;0.80;;
61330;SDS011;71993;52.478;-1.918;2023-08-31T00:27:53;1.85;;;1.00;;
61330;SDS011;71993;52.478;-1.918;2023-08-31T00:30:25;1.75;;;0.93;;
61330;SDS011;71993;52.478;-1.918;2023-08-31T00:32:57;3.75;;;1.30;;
61330;SDS011;71993;52.478;-1.918;2023-08-31T00:35:29;2.97;;;1.40;;
61330;SDS011;71993;52.478;-1.918;2023-08-31T00:38:00;1.90;;;1.17;;
61330;SDS011;71993;52.478;-1.918;2023-08-31T00:40:32;4.28;;;1.35;;
61330;SDS011;71993;52.478;-1.918;2023-08-31T00:43:08;3.72;;;1.42;;
61330;SDS011;71993;52.478;-1.918;2023-08-31T00:45:38;3.47;;;1.40;;
61330;SDS011;71993;52.478;-1.918;2023-08-31T00:48:09;2.00;;;1.20;;
61330;SDS011;71993;52.478;-1.918;2023-08-31T00:50:40;3.70;;;1.40;;
61330;SDS011;71993;52.478;-1.918;2023-08-31T00:53:10;2.80;;;1.20;;
61330;SDS011;71993;52.478;-1.918;2023-08-31T00:55:41;3.28;;;1.15;;
61330;SDS011;71993;52.478;-1.918;2023-08-31T00:58:14;4.85;;;1.20;;
61330;SDS011;71993;52.478;-1.918;2023-08-31T01:00:46;1.88;;;1.10;;
61330;SDS011;71993;52.478;-1.918;2023-08-31T01:03:22;1.73;;;0.90;;
61330;SDS011;71993;52.478;-1.918;2023-08-31T01:05:55;1.55;;;1.00;;
61330;SDS011;71993;52.478;-1.918;2023-08-31T01:08:29;2.50;;;1.00;;
61330;SDS011;71993;52.478;-1.918;2023-08-31T01:11:05;1.30;;;0.90;;
61330;SDS011;71993;52.478;-1.918;2023-08-31T01:13:38;1.60;;;1.00;;
61330;SDS011;71993;52.478;-1.918;2023-08-31T01:16:11;1.83;;;1.10;;
61330;SDS011;71993;52.478;-1.918;2023-08-31T01:18:43;2.85;;;1.20;;
61330;SDS011;71993;52.478;-1.918;2023-08-31T01:21:17;2.38;;;0.90;;
61330;SDS011;71993;52.478;-1.918;2023-08-31T01:23:52;1.65;;;1.00;;
61330;SDS011;71993;52.478;-1.918;2023-08-31T01:26:23;1.58;;;0.90;;
61330;SDS011;71993;52.478;-1.918;2023-08-31T01:28:55;1.13;;;0.73;;
61330;SDS011;71993;52.478;-1.918;2023-08-31T01:31:26;1.42;;;0.93;;
61330;SDS011;71993;52.478;-1.918;2023-08-31T01:33:57;1.40;;;0.70;;
61330;SDS011;71993;52.478;-1.918;2023-08-31T01:36:29;0.82;;;0.73;;
61330;SDS011;71993;52.478;-1.918;2023-08-31T01:39:05;1.15;;;0.70;;
61330;SDS011;71993;52.478;-1.918;2023-08-31T01:41:37;3.53;;;0.90;;
61330;SDS011;71993;52.478;-1.918;2023-08-31T01:44:11;1.00;;;0.77;;
61330;SDS011;71993;52.478;-1.918;2023-08-31T01:46:45;1.92;;;0.80;;
61330;SDS011;71993;52.478;-1.918;2023-08-31T01:49:16;2.33;;;0.80;;
61330;SDS011;71993;52.478;-1.918;2023-08-31T01:51:47;0.82;;;0.70;;
61330;SDS011;71993;52.478;-1.918;2023-08-31T01:54:20;2.22;;;0.60;;
61330;SDS011;71993;52.478;-1.918;2023-08-31T01:56:51;1.30;;;0.75;;
61330;SDS011;71993;52.478;-1.918;2023-08-31T01:59:21;0.57;;;0.57;;
61330;SDS011;71993;52.478;-1.918;2023-08-31T02:01:52;0.95;;;0.80;;
61330;SDS011;71993;52.478;-1.918;2023-08-31T02:04:22;0.90;;;0.68;;
61330;SDS011;71993;52.478;-1.918;2023-08-31T02:06:53;1.00;;;0.63;;
61330;SDS011;71993;52.478;-1.918;2023-08-31T02:09:26;0.77;;;0.65;;
61330;SDS011;71993;52.478;-1.918;2023-08-31T02:11:56;0.73;;;0.60;;
61330;SDS011;71993;52.478;-1.918;2023-08-31T02:14:29;0.63;;;0.50;;
61330;SDS011;71993;52.478;-1.918;2023-08-31T02:16:59;0.50;;;0.50;;
61330;SDS011;71993;52.478;-1.918;2023-08-31T02:19:30;0.50;;;0.50;;
61330;SDS011;71993;52.478;-1.918;2023-08-31T02:22:03;1.70;;;0.70;;
61330;SDS011;71993;52.478;-1.918;2023-08-31T02:24:36;0.63;;;0.60;;
61330;SDS011;71993;52.478;-1.918;2023-08-31T02:27:06;1.08;;;0.57;;
61330;SDS011;71993;52.478;-1.918;2023-08-31T02:29:37;0.73;;;0.52;;
61330;SDS011;71993;52.478;-1.918;2023-08-31T02:32:07;0.60;;;0.50;;
61330;SDS011;71993;52.478;-1.918;2023-08-31T02:34:38;0.52;;;0.50;;
61330;SDS011;71993;52.478;-1.918;2023-08-31T02:37:08;1.58;;;0.50;;
61330;SDS011;71993;52.478;-1.918;2023-08-31T02:39:41;0.60;;;0.60;;
61330;SDS011;71993;52.478;-1.918;2023-08-31T02:42:11;0.43;;;0.40;;
61330;SDS011;71993;52.478;-1.918;2023-08-31T02:44:44;1.38;;;0.38;;
61330;SDS011;71993;52.478;-1.918;2023-08-31T02:47:15;0.70;;;0.50;;
61330;SDS011;71993;52.478;-1.918;2023-08-31T02:49:45;0.65;;;0.52;;
61330;SDS011;71993;52.478;-1.918;2023-08-31T02:52:16;0.65;;;0.50;;
61330;SDS011;71993;52.478;-1.918;2023-08-31T02:54:49;0.47;;;0.40;;
61330;SDS011;71993;52.478;-1.918;2023-08-31T02:57:20;0.70;;;0.50;;
61330;SDS011;71993;52.478;-1.918;2023-08-31T02:59:51;0.50;;;0.45;;
61330;SDS011;71993;52.478;-1.918;2023-08-31T03:02:22;0.40;;;0.40;;
61330;SDS011;71993;52.478;-1.918;2023-08-31T03:04:52;1.40;;;0.50;;
61330;SDS011;71993;52.478;-1.918;2023-08-31T03:07:25;0.47;;;0.40;;
61330;SDS011;71993;52.478;-1.918;2023-08-31T03:09:58;0.50;;;0.38;;
61330;SDS011;71993;52.478;-1.918;2023-08-31T03:12:30;2.05;;;0.45;;
61330;SDS011;71993;52.478;-1.918;2023-08-31T03:15:01;0.52;;;0.50;;
61330;SDS011;71993;52.478;-1.918;2023-08-31T03:17:31;0.32;;;0.30;;
61330;SDS011;71993;52.478;-1.918;2023-08-31T03:20:02;0.80;;;0.45;;
61330;SDS011;71993;52.478;-1.918;2023-08-31T03:22:34;0.75;;;0.32;;
61330;SDS011;71993;52.478;-1.918;2023-08-31T03:25:07;0.45;;;0.40;;
61330;SDS011;71993;52.478;-1.918;2023-08-31T03:27:39;0.30;;;0.30;;
61330;SDS011;71993;52.478;-1.918;2023-08-31T03:30:10;2.28;;;0.40;;
61330;SDS011;71993;52.478;-1.918;2023-08-31T03:32:42;0.80;;;0.30;;
61330;SDS011;71993;52.478;-1.918;2023-08-31T03:35:13;0.65;;;0.28;;
61330;SDS011;71993;52.478;-1.918;2023-08-31T03:37:46;0.32;;;0.28;;
61330;SDS011;71993;52.478;-1.918;2023-08-31T03:40:19;0.28;;;0.20;;
61330;SDS011;71993;52.478;-1.918;2023-08-31T03:42:51;0.90;;;0.30;;
61330;SDS011;71993;52.478;-1.918;2023-08-31T03:45:22;0.30;;;0.30;;
61330;SDS011;71993;52.478;-1.918;2023-08-31T03:47:53;0.45;;;0.30;;
61330;SDS011;71993;52.478;-1.918;2023-08-31T03:50:25;0.88;;;0.30;;
61330;SDS011;71993;52.478;-1.918;2023-08-31T03:52:56;0.20;;;0.20;;
61330;SDS011;71993;52.478;-1.918;2023-08-31T03:55:29;0.30;;;0.30;;
61330;SDS011;71993;52.478;-1.918;2023-08-31T03:57:59;0.15;;;0.15;;
61330;SDS011;71993;52.478;-1.918;2023-08-31T04:00:31;0.40;;;0.40;;
61330;SDS011;71993;52.478;-1.918;2023-08-31T04:03:01;0.40;;;0.20;;
61330;SDS011;71993;52.478;-1.918;2023-08-31T04:05:32;0.32;;;0.32;;
61330;SDS011;71993;52.478;-1.918;2023-08-31T04:08:04;0.40;;;0.30;;
61330;SDS011;71993;52.478;-1.918;2023-08-31T04:10:39;0.32;;;0.30;;
61330;SDS011;71993;52.478;-1.918;2023-08-31T04:13:09;1.38;;;0.30;;
61330;SDS011;71993;52.478;-1.918;2023-08-31T04:15:40;0.40;;;0.30;;
61330;SDS011;71993;52.478;-1.918;2023-08-31T04:18:10;0.88;;;0.30;;
61330;SDS011;71993;52.478;-1.918;2023-08-31T04:20:47;0.40;;;0.25;;
61330;SDS011;71993;52.478;-1.918;2023-08-31T04:23:19;0.45;;;0.25;;
61330;SDS011;71993;52.478;-1.918;2023-08-31T04:25:52;1.20;;;0.30;;
61330;SDS011;71993;52.478;-1.918;2023-08-31T04:28:25;0.30;;;0.30;;
61330;SDS011;71993;52.478;-1.918;2023-08-31T04:30:56;0.32;;;0.20;;
61330;SDS011;71993;52.478;-1.918;2023-08-31T04:33:29;0.30;;;0.30;;
61330;SDS011;71993;52.478;-1.918;2023-08-31T04:36:00;0.60;;;0.20;;
61330;SDS011;71993;52.478;-1.918;2023-08-31T04:38:32;0.17;;;0.17;;
61330;SDS011;71993;52.478;-1.918;2023-08-31T04:41:05;0.35;;;0.20;;
61330;SDS011;71993;52.478;-1.918;2023-08-31T04:43:36;0.30;;;0.30;;
61330;SDS011;71993;52.478;-1.918;2023-08-31T04:46:08;2.47;;;0.40;;
61330;SDS011;71993;52.478;-1.918;2023-08-31T04:48:40;0.40;;;0.20;;
61330;SDS011;71993;52.478;-1.918;2023-08-31T04:54:08;0.55;;;0.30;;
61330;SDS011;71993;52.478;-1.918;2023-08-31T04:56:55;0.20;;;0.20;;
61330;SDS011;71993;52.478;-1.918;2023-08-31T04:59:38;0.50;;;0.20;;
61330;SDS011;71993;52.478;-1.918;2023-08-31T05:02:22;1.10;;;0.20;;
61330;SDS011;71993;52.478;-1.918;2023-08-31T05:05:06;0.68;;;0.20;;
61330;SDS011;71993;52.478;-1.918;2023-08-31T05:07:41;0.30;;;0.30;;
61330;SDS011;71993;52.478;-1.918;2023-08-31T05:10:11;0.38;;;0.20;;
61330;SDS011;71993;52.478;-1.918;2023-08-31T05:12:44;0.35;;;0.20;;
61330;SDS011;71993;52.478;-1.918;2023-08-31T05:15:15;0.75;;;0.10;;
61330;SDS011;71993;52.478;-1.918;2023-08-31T05:17:45;0.95;;;0.10;;
61330;SDS011;71993;52.478;-1.918;2023-08-31T05:20:16;0.77;;;0.20;;
61330;SDS011;71993;52.478;-1.918;2023-08-31T05:22:48;0.20;;;0.20;;
61330;SDS011;71993;52.478;-1.918;2023-08-31T05:25:19;0.20;;;0.20;;
61330;SDS011;71993;52.478;-1.918;2023-08-31T05:27:52;0.55;;;0.20;;
61330;SDS011;71993;52.478;-1.918;2023-08-31T05:30:22;0.20;;;0.20;;
61330;SDS011;71993;52.478;-1.918;2023-08-31T05:32:53;0.35;;;0.20;;
61330;SDS011;71993;52.478;-1.918;2023-08-31T05:35:23;0.68;;;0.20;;
61330;SDS011;71993;52.478;-1.918;2023-08-31T05:37:55;0.10;;;0.10;;
61330;SDS011;71993;52.478;-1.918;2023-08-31T05:40:26;0.35;;;0.10;;
61330;SDS011;71993;52.478;-1.918;2023-08-31T05:42:59;0.32;;;0.20;;
61330;SDS011;71993;52.478;-1.918;2023-08-31T05:45:31;0.38;;;0.20;;
61330;SDS011;71993;52.478;-1.918;2023-08-31T05:48:02;0.30;;;0.20;;
61330;SDS011;71993;52.478;-1.918;2023-08-31T05:50:33;0.30;;;0.20;;
61330;SDS011;71993;52.478;-1.918;2023-08-31T05:53:04;0.65;;;0.17;;
61330;SDS011;71993;52.478;-1.918;2023-08-31T05:55:35;0.30;;;0.22;;
61330;SDS011;71993;52.478;-1.918;2023-08-31T05:58:08;0.20;;;0.17;;
61330;SDS011;71993;52.478;-1.918;2023-08-31T06:00:39;0.43;;;0.20;;
61330;SDS011;71993;52.478;-1.918;2023-08-31T06:03:09;0.32;;;0.10;;
61330;SDS011;71993;52.478;-1.918;2023-08-31T06:05:40;0.20;;;0.20;;
61330;SDS011;71993;52.478;-1.918;2023-08-31T06:08:10;0.30;;;0.20;;
61330;SDS011;71993;52.478;-1.918;2023-08-31T06:10:40;0.30;;;0.10;;
61330;SDS011;71993;52.478;-1.918;2023-08-31T06:13:13;0.10;;;0.10;;
61330;SDS011;71993;52.478;-1.918;2023-08-31T06:15:44;0.38;;;0.20;;
61330;SDS011;71993;52.478;-1.918;2023-08-31T06:18:14;0.82;;;0.20;;
61330;SDS011;71993;52.478;-1.918;2023-08-31T06:20:45;0.55;;;0.30;;
61330;SDS011;71993;52.478;-1.918;2023-08-31T06:23:15;1.77;;;0.20;;
61330;SDS011;71993;52.478;-1.918;2023-08-31T06:25:46;0.20;;;0.20;;
61330;SDS011;71993;52.478;-1.918;2023-08-31T06:28:19;0.45;;;0.28;;
61330;SDS011;71993;52.478;-1.918;2023-08-31T06:30:49;0.50;;;0.10;;
61330;SDS011;71993;52.478;-1.918;2023-08-31T06:33:20;0.10;;;0.10;;
61330;SDS011;71993;52.478;-1.918;2023-08-31T06:35:50;0.20;;;0.10;;
61330;SDS011;71993;52.478;-1.918;2023-08-31T06:38:21;0.10;;;0.10;;
61330;SDS011;71993;52.478;-1.918;2023-08-31T06:40:52;0.20;;;0.20;;
61330;SDS011;71993;52.478;-1.918;2023-08-31T06:43:29;0.10;;;0.10;;
61330;SDS011;71993;52.478;-1.918;2023-08-31T06:45:59;0.20;;;0.20;;
61330;SDS011;71993;52.478;-1.918;2023-08-31T06:48:29;0.30;;;0.20;;
61330;SDS011;71993;52.478;-1.918;2023-08-31T06:51:00;0.30;;;0.20;;
61330;SDS011;71993;52.478;-1.918;2023-08-31T06:53:31;2.90;;;0.20;;
61330;SDS011;71993;52.478;-1.918;2023-08-31T06:56:02;1.65;;;0.13;;
61330;SDS011;71993;52.478;-1.918;2023-08-31T06:58:35;1.55;;;0.20;;
61330;SDS011;71993;52.478;-1.918;2023-08-31T07:01:05;0.10;;;0.10;;
61330;SDS011;71993;52.478;-1.918;2023-08-31T07:03:36;0.15;;;0.15;;
61330;SDS011;71993;52.478;-1.918;2023-08-31T07:06:07;0.17;;;0.13;;
61330;SDS011;71993;52.478;-1.918;2023-08-31T07:08:37;0.10;;;0.10;;
61330;SDS011;71993;52.478;-1.918;2023-08-31T07:11:09;0.20;;;0.15;;
61330;SDS011;71993;52.478;-1.918;2023-08-31T07:13:42;0.25;;;0.17;;
61330;SDS011;71993;52.478;-1.918;2023-08-31T07:16:12;0.25;;;0.20;;
61330;SDS011;71993;52.478;-1.918;2023-08-31T07:18:43;0.20;;;0.10;;
61330;SDS011;71993;52.478;-1.918;2023-08-31T07:21:13;0.20;;;0.10;;
61330;SDS011;71993;52.478;-1.918;2023-08-31T07:23:44;1.25;;;0.20;;
61330;SDS011;71993;52.478;-1.918;2023-08-31T07:26:15;0.30;;;0.20;;
61330;SDS011;71993;52.478;-1.918;2023-08-31T07:28:49;0.20;;;0.20;;
61330;SDS011;71993;52.478;-1.918;2023-08-31T07:31:19;0.15;;;0.15;;
61330;SDS011;71993;52.478;-1.918;2023-08-31T07:33:49;0.28;;;0.17;;
61330;SDS011;71993;52.478;-1.918;2023-08-31T07:36:20;1.38;;;0.10;;
61330;SDS011;71993;52.478;-1.918;2023-08-31T07:38:50;0.40;;;0.38;;
61330;SDS011;71993;52.478;-1.918;2023-08-31T07:41:21;0.13;;;0.13;;
61330;SDS011;71993;52.478;-1.918;2023-08-31T07:43:54;0.25;;;0.20;;
61330;SDS011;71993;52.478;-1.918;2023-08-31T07:46:26;0.17;;;0.17;;
61330;SDS011;71993;52.478;-1.918;2023-08-31T07:48:56;0.20;;;0.20;;
61330;SDS011;71993;52.478;-1.918;2023-08-31T07:51:28;0.50;;;0.32;;
61330;SDS011;71993;52.478;-1.918;2023-08-31T07:53:59;1.17;;;0.30;;
61330;SDS011;71993;52.478;-1.918;2023-08-31T07:56:30;2.40;;;0.60;;
61330;SDS011;71993;52.478;-1.918;2023-08-31T07:59:03;2.60;;;1.23;;
61330;SDS011;71993;52.478;-1.918;2023-08-31T08:01:34;2.88;;;1.00;;
61330;SDS011;71993;52.478;-1.918;2023-08-31T08:04:05;2.92;;;1.15;;
61330;SDS011;71993;52.478;-1.918;2023-08-31T08:06:35;4.15;;;1.00;;
61330;SDS011;71993;52.478;-1.918;2023-08-31T08:09:06;2.63;;;1.20;;
61330;SDS011;71993;52.478;-1.918;2023-08-31T08:11:36;2.10;;;1.10;;
61330;SDS011;71993;52.478;-1.918;2023-08-31T08:14:09;2.72;;;1.20;;
61330;SDS011;71993;52.478;-1.918;2023-08-31T08:16:40;2.85;;;1.20;;
61330;SDS011;71993;52.478;-1.918;2023-08-31T08:19:10;1.95;;;1.08;;
61330;SDS011;71993;52.478;-1.918;2023-08-31T08:21:41;2.25;;;1.25;;
61330;SDS011;71993;52.478;-1.918;2023-08-31T08:24:11;3.80;;;1.20;;
61330;SDS011;71993;52.478;-1.918;2023-08-31T08:26:42;2.45;;;1.10;;
61330;SDS011;71993;52.478;-1.918;2023-08-31T08:29:15;2.70;;;1.20;;
61330;SDS011;71993;52.478;-1.918;2023-08-31T08:31:45;2.20;;;1.20;;
61330;SDS011;71993;52.478;-1.918;2023-08-31T08:34:16;4.80;;;1.40;;
61330;SDS011;71993;52.478;-1.918;2023-08-31T08:36:46;2.50;;;1.30;;
61330;SDS011;71993;52.478;-1.918;2023-08-31T08:51:18;2.63;;;1.23;;
61330;SDS011;71993;52.478;-1.918;2023-08-31T08:53:48;4.72;;;1.48;;
61330;SDS011;71993;52.478;-1.918;2023-08-31T08:56:21;3.35;;;1.60;;
61330;SDS011;71993;52.478;-1.918;2023-08-31T08:58:51;4.90;;;1.80;;
61330;SDS011;71993;52.478;-1.918;2023-08-31T09:01:22;4.32;;;1.58;;
61330;SDS011;71993;52.478;-1.918;2023-08-31T09:03:53;3.55;;;1.40;;
61330;SDS011;71993;52.478;-1.918;2023-08-31T09:06:26;3.13;;;1.80;;
61330;SDS011;71993;52.478;-1.918;2023-08-31T09:08:58;2.50;;;1.52;;
61330;SDS011;71993;52.478;-1.918;2023-08-31T09:11:28;3.08;;;1.60;;
61330;SDS011;71993;52.478;-1.918;2023-08-31T09:13:58;3.47;;;1.45;;
61330;SDS011;71993;52.478;-1.918;2023-08-31T09:16:29;3.05;;;1.50;;
61330;SDS011;71993;52.478;-1.918;2023-08-31T09:19:00;3.45;;;1.70;;
61330;SDS011;71993;52.478;-1.918;2023-08-31T09:21:50;3.03;;;1.83;;
61330;SDS011;71993;52.478;-1.918;2023-08-31T09:24:22;2.70;;;1.80;;
61330;SDS011;71993;52.478;-1.918;2023-08-31T09:26:53;4.13;;;1.75;;
61330;SDS011;71993;52.478;-1.918;2023-08-31T09:29:24;2.72;;;1.67;;
61330;SDS011;71993;52.478;-1.918;2023-08-31T09:31:54;2.47;;;1.50;;
61330;SDS011;71993;52.478;-1.918;2023-08-31T09:34:32;2.90;;;1.63;;
61330;SDS011;71993;52.478;-1.918;2023-08-31T09:37:08;2.63;;;1.50;;
61330;SDS011;71993;52.478;-1.918;2023-08-31T09:39:39;3.13;;;1.48;;
61330;SDS011;71993;52.478;-1.918;2023-08-31T09:42:09;2.63;;;1.30;;
61330;SDS011;71993;52.478;-1.918;2023-08-31T09:44:40;3.03;;;1.52;;
61330;SDS011;71993;52.478;-1.918;2023-08-31T09:47:13;2.85;;;1.30;;
61330;SDS011;71993;52.478;-1.918;2023-08-31T09:49:44;2.78;;;1.42;;
61330;SDS011;71993;52.478;-1.918;2023-08-31T09:52:17;2.30;;;1.30;;
61330;SDS011;71993;52.478;-1.918;2023-08-31T09:54:48;3.13;;;1.50;;
61330;SDS011;71993;52.478;-1.918;2023-08-31T09:57:20;2.35;;;1.30;;
61330;SDS011;71993;52.478;-1.918;2023-08-31T09:59:51;2.50;;;1.40;;
61330;SDS011;71993;52.478;-1.918;2023-08-31T10:02:22;3.00;;;1.40;;
61330;SDS011;71993;52.478;-1.918;2023-08-31T10:04:53;3.13;;;1.60;;
61330;SDS011;71993;52.478;-1.918;2023-08-31T10:07:26;2.58;;;1.30;;
61330;SDS011;71993;52.478;-1.918;2023-08-31T10:09:57;2.67;;;1.30;;
61330;SDS011;71993;52.478;-1.918;2023-08-31T10:12:28;2.70;;;1.50;;
61330;SDS011;71993;52.478;-1.918;2023-08-31T10:14:59;7.82;;;1.58;;
61330;SDS011;71993;52.478;-1.918;2023-08-31T10:17:30;3.25;;;1.50;;
61330;SDS011;71993;52.478;-1.918;2023-08-31T10:20:01;2.30;;;1.30;;
61330;SDS011;71993;52.478;-1.918;2023-08-31T10:22:36;2.58;;;1.60;;
61330;SDS011;71993;52.478;-1.918;2023-08-31T10:25:08;2.85;;;1.38;;
61330;SDS011;71993;52.478;-1.918;2023-08-31T10:27:41;2.40;;;1.25;;
61330;SDS011;71993;52.478;-1.918;2023-08-31T10:30:15;2.58;;;1.25;;
61330;SDS011;71993;52.478;-1.918;2023-08-31T10:32:46;2.03;;;1.20;;
61330;SDS011;71993;52.478;-1.918;2023-08-31T10:35:17;2.63;;;1.30;;
61330;SDS011;71993;52.478;-1.918;2023-08-31T10:37:50;2.67;;;1.25;;
61330;SDS011;71993;52.478;-1.918;2023-08-31T10:40:21;2.38;;;1.30;;
61330;SDS011;71993;52.478;-1.918;2023-08-31T10:43:13;3.13;;;1.30;;
61330;SDS011;71993;52.478;-1.918;2023-08-31T10:45:43;3.50;;;1.23;;
61330;SDS011;71993;52.478;-1.918;2023-08-31T10:48:13;2.40;;;1.30;;
61330;SDS011;71993;52.478;-1.918;2023-08-31T10:50:45;2.25;;;1.20;;
61330;SDS011;71993;52.478;-1.918;2023-08-31T10:53:18;2.30;;;1.30;;
61330;SDS011;71993;52.478;-1.918;2023-08-31T10:55:59;2.92;;;1.40;;
61330;SDS011;71993;52.478;-1.918;2023-08-31T10:58:31;2.35;;;1.38;;
61330;SDS011;71993;52.478;-1.918;2023-08-31T11:01:01;3.17;;;1.33;;
61330;SDS011;71993;52.478;-1.918;2023-08-31T11:03:38;2.65;;;1.50;;
61330;SDS011;71993;52.478;-1.918;2023-08-31T11:06:27;2.80;;;1.50;;
61330;SDS011;71993;52.478;-1.918;2023-08-31T11:09:01;3.25;;;1.50;;
61330;SDS011;71993;52.478;-1.918;2023-08-31T11:11:39;2.80;;;1.48;;
61330;SDS011;71993;52.478;-1.918;2023-08-31T11:14:11;2.40;;;1.33;;
61330;SDS011;71993;52.478;-1.918;2023-08-31T11:16:49;2.80;;;1.45;;
61330;SDS011;71993;52.478;-1.918;2023-08-31T11:19:19;3.00;;;1.35;;
61330;SDS011;71993;52.478;-1.918;2023-08-31T11:21:55;3.83;;;1.50;;
61330;SDS011;71993;52.478;-1.918;2023-08-31T11:24:29;4.28;;;1.55;;
61330;SDS011;71993;52.478;-1.918;2023-08-31T11:26:59;2.55;;;1.50;;
61330;SDS011;71993;52.478;-1.918;2023-08-31T11:29:31;2.47;;;1.40;;
61330;SDS011;71993;52.478;-1.918;2023-08-31T11:32:01;2.38;;;1.50;;
61330;SDS011;71993;52.478;-1.918;2023-08-31T11:34:32;3.45;;;1.50;;
61330;SDS011;71993;52.478;-1.918;2023-08-31T11:37:02;2.20;;;1.48;;
61330;SDS011;71993;52.478;-1.918;2023-08-31T11:39:35;4.55;;;1.50;;
61330;SDS011;71993;52.478;-1.918;2023-08-31T11:42:07;1.63;;;1.30;;
61330;SDS011;71993;52.478;-1.918;2023-08-31T11:44:38;2.53;;;1.30;;
61330;SDS011;71993;52.478;-1.918;2023-08-31T11:47:08;1.83;;;1.40;;
61330;SDS011;71993;52.478;-1.918;2023-08-31T11:49:39;2.05;;;1.40;;
61330;SDS011;71993;52.478;-1.918;2023-08-31T11:52:10;2.38;;;1.60;;
61330;SDS011;71993;52.478;-1.918;2023-08-31T11:54:43;1.95;;;1.48;;
61330;SDS011;71993;52.478;-1.918;2023-08-31T11:57:14;2.85;;;1.70;;
61330;SDS011;71993;52.478;-1.918;2023-08-31T11:59:44;2.38;;;1.50;;
61330;SDS011;71993;52.478;-1.918;2023-08-31T12:02:15;2.28;;;1.60;;
61330;SDS011;71993;52.478;-1.918;2023-08-31T12:04:45;2.22;;;1.35;;
61330;SDS011;71993;52.478;-1.918;2023-08-31T12:07:16;2.15;;;1.50;;
61330;SDS011;71993;52.478;-1.918;2023-08-31T12:09:49;3.05;;;1.65;;
61330;SDS011;71993;52.478;-1.918;2023-08-31T12:12:20;3.00;;;1.70;;
61330;SDS011;71993;52.478;-1.918;2023-08-31T12:14:52;2.47;;;1.50;;
61330;SDS011;71993;52.478;-1.918;2023-08-31T12:17:23;1.98;;;1.50;;
61330;SDS011;71993;52.478;-1.918;2023-08-31T12:19:53;2.55;;;1.42;;
61330;SDS011;71993;52.478;-1.918;2023-08-31T12:22:32;3.08;;;1.83;;
61330;SDS011;71993;52.478;-1.918;2023-08-31T12:25:05;3.03;;;1.95;;
61330;SDS011;71993;52.478;-1.918;2023-08-31T12:27:36;3.30;;;2.03;;
61330;SDS011;71993;52.478;-1.918;2023-08-31T12:30:07;3.45;;;1.70;;
61330;SDS011;71993;52.478;-1.918;2023-08-31T12:32:38;2.63;;;1.70;;
61330;SDS011;71993;52.478;-1.918;2023-08-31T12:35:08;3.05;;;1.70;;
61330;SDS011;71993;52.478;-1.918;2023-08-31T12:37:39;2.28;;;1.67;;
61330;SDS011;71993;52.478;-1.918;2023-08-31T12:40:12;2.08;;;1.52;;
61330;SDS011;71993;52.478;-1.918;2023-08-31T12:42:46;3.45;;;1.83;;
61330;SDS011;71993;52.478;-1.918;2023-08-31T12:45:17;2.10;;;1.67;;
61330;SDS011;71993;52.478;-1.918;2023-08-31T12:47:47;2.13;;;1.63;;
61330;SDS011;71993;52.478;-1.918;2023-08-31T12:50:18;2.92;;;1.80;;
61330;SDS011;71993;52.478;-1.918;2023-08-31T12:52:48;2.30;;;1.60;;
61330;SDS011;71993;52.478;-1.918;2023-08-31T12:55:21;2.63;;;1.50;;
61330;SDS011;71993;52.478;-1.918;2023-08-31T12:57:52;2.45;;;1.77;;
61330;SDS011;71993;52.478;-1.918;2023-08-31T13:00:22;3.15;;;1.63;;
61330;SDS011;71993;52.478;-1.918;2023-08-31T13:02:53;3.05;;;1.70;;
61330;SDS011;71993;52.478;-1.918;2023-08-31T13:05:23;3.47;;;1.90;;
61330;SDS011;71993;52.478;-1.918;2023-08-31T13:07:55;3.63;;;1.83;;
61330;SDS011;71993;52.478;-1.918;2023-08-31T13:10:28;2.83;;;1.50;;
61330;SDS011;71993;52.478;-1.918;2023-08-31T13:12:59;3.28;;;1.50;;
61330;SDS011;71993;52.478;-1.918;2023-08-31T13:15:31;2.70;;;1.70;;
61330;SDS011;71993;52.478;-1.918;2023-08-31T13:18:01;2.60;;;1.60;;
61330;SDS011;71993;52.478;-1.918;2023-08-31T13:20:32;2.47;;;1.50;;
61330;SDS011;71993;52.478;-1.918;2023-08-31T13:23:03;3.00;;;1.45;;
61330;SDS011;71993;52.478;-1.918;2023-08-31T13:25:37;3.13;;;1.92;;
61330;SDS011;71993;52.478;-1.918;2023-08-31T13:28:07;2.53;;;1.85;;
61330;SDS011;71993;52.478;-1.918;2023-08-31T13:30:38;3.22;;;1.60;;
61330;SDS011;71993;52.478;-1.918;2023-08-31T13:33:09;2.35;;;1.50;;
61330;SDS011;71993;52.478;-1.918;2023-08-31T13:35:40;3.50;;;1.80;;
61330;SDS011;71993;52.478;-1.918;2023-08-31T13:38:10;2.97;;;1.88;;
61330;SDS011;71993;52.478;-1.918;2023-08-31T13:40:43;2.95;;;1.90;;
61330;SDS011;71993;52.478;-1.918;2023-08-31T13:43:14;2.97;;;2.00;;
61330;SDS011;71993;52.478;-1.918;2023-08-31T13:45:44;3.00;;;1.75;;
61330;SDS011;71993;52.478;-1.918;2023-08-31T13:48:15;2.00;;;1.40;;
61330;SDS011;71993;52.478;-1.918;2023-08-31T13:50:45;2.97;;;1.73;;
61330;SDS011;71993;52.478;-1.918;2023-08-31T13:53:16;3.42;;;2.00;;
61330;SDS011;71993;52.478;-1.918;2023-08-31T13:55:49;3.15;;;1.77;;
61330;SDS011;71993;52.478;-1.918;2023-08-31T13:58:20;2.58;;;1.85;;
61330;SDS011;71993;52.478;-1.918;2023-08-31T14:00:50;3.58;;;2.00;;
61330;SDS011;71993;52.478;-1.918;2023-08-31T14:03:21;3.33;;;1.80;;
61330;SDS011;71993;52.478;-1.918;2023-08-31T14:05:51;3.10;;;1.80;;
61330;SDS011;71993;52.478;-1.918;2023-08-31T14:08:22;3.03;;;2.00;;
61330;SDS011;71993;52.478;-1.918;2023-08-31T14:10:55;2.83;;;1.88;;
61330;SDS011;71993;52.478;-1.918;2023-08-31T14:13:26;2.60;;;1.60;;
61330;SDS011;71993;52.478;-1.918;2023-08-31T14:15:56;3.10;;;1.80;;
61330;SDS011;71993;52.478;-1.918;2023-08-31T14:18:27;2.63;;;1.90;;
61330;SDS011;71993;52.478;-1.918;2023-08-31T14:20:59;3.72;;;2.00;;
61330;SDS011;71993;52.478;-1.918;2023-08-31T14:23:30;3.30;;;1.70;;
61330;SDS011;71993;52.478;-1.918;2023-08-31T14:26:03;3.10;;;1.80;;
61330;SDS011;71993;52.478;-1.918;2023-08-31T14:28:37;3.25;;;1.83;;
61330;SDS011;71993;52.478;-1.918;2023-08-31T14:31:09;3.97;;;1.90;;
61330;SDS011;71993;52.478;-1.918;2023-08-31T14:33:40;3.10;;;1.88;;
61330;SDS011;71993;52.478;-1.918;2023-08-31T14:36:10;2.80;;;1.80;;
61330;SDS011;71993;52.478;-1.918;2023-08-31T14:38:41;3.15;;;2.08;;
61330;SDS011;71993;52.478;-1.918;2023-08-31T14:41:15;3.28;;;2.00;;
61330;SDS011;71993;52.478;-1.918;2023-08-31T14:43:46;3.13;;;1.80;;
61330;SDS011;71993;52.478;-1.918;2023-08-31T14:46:16;4.10;;;2.30;;
61330;SDS011;71993;52.478;-1.918;2023-08-31T14:48:47;2.78;;;1.85;;
61330;SDS011;71993;52.478;-1.918;2023-08-31T14:51:17;3.00;;;1.88;;
61330;SDS011;71993;52.478;-1.918;2023-08-31T14:53:47;3.13;;;1.80;;
61330;SDS011;71993;52.478;-1.918;2023-08-31T14:56:21;3.90;;;2.00;;
61330;SDS011;71993;52.478;-1.918;2023-08-31T14:58:51;2.90;;;1.83;;
61330;SDS011;71993;52.478;-1.918;2023-08-31T15:01:22;3.22;;;2.00;;
61330;SDS011;71993;52.478;-1.918;2023-08-31T15:03:52;3.65;;;1.80;;
61330;SDS011;71993;52.478;-1.918;2023-08-31T15:06:23;3.17;;;1.90;;
61330;SDS011;71993;52.478;-1.918;2023-08-31T15:08:54;3.45;;;1.80;;
61330;SDS011;71993;52.478;-1.918;2023-08-31T15:11:28;3.92;;;1.80;;
61330;SDS011;71993;52.478;-1.918;2023-08-31T15:13:58;2.30;;;1.70;;